sensor_id;sensor_type;location;lat;lon;timestamp;temperature;humidity
26182;DHT22;13927;51.534;11.866;2023-05-07T00:00:01;11.10;99.90
26182;DHT22;13927;51.534;11.866;2023-05-07T00:02:28;11.00;99.90
26182;DHT22;13927;51.534;11.866;2023-05-07T00:04:54;11.00;99.90
26182;DHT22;13927;51.534;11.866;2023-05-07T00:07:20;10.90;99.90
26182;DHT22;13927;51.534;11.866;2023-05-07T00:09:46;10.90;99.90
26182;DHT22;13927;51.534;11.866;2023-05-07T00:12:12;10.90;99.90
26182;DHT22;13927;51.534;11.866;2023-05-07T00:14:37;10.80;99.90
26182;DHT22;13927;51.534;11.866;2023-05-07T00:17:03;10.80;99.90
26182;DHT22;13927;51.534;11.866;2023-05-07T00:19:29;10.70;99.90
26182;DHT22;13927;51.534;11.866;2023-05-07T00:21:54;10.60;99.90
26182;DHT22;13927;51.534;11.866;2023-05-07T00:24:21;10.60;99.90
26182;DHT22;13927;51.534;11.866;2023-05-07T00:26:46;10.50;99.90
26182;DHT22;13927;51.534;11.866;2023-05-07T00:29:12;10.50;99.90
26182;DHT22;13927;51.534;11.866;2023-05-07T00:31:38;10.40;99.90
26182;DHT22;13927;51.534;11.866;2023-05-07T00:34:04;10.40;99.90
26182;DHT22;13927;51.534;11.866;2023-05-07T00:36:29;10.40;99.90
26182;DHT22;13927;51.534;11.866;2023-05-07T00:38:57;10.40;99.90
26182;DHT22;13927;51.534;11.866;2023-05-07T00:41:25;10.40;99.90
26182;DHT22;13927;51.534;11.866;2023-05-07T00:43:51;10.30;99.90
26182;DHT22;13927;51.534;11.866;2023-05-07T00:46:17;10.30;99.90
26182;DHT22;13927;51.534;11.866;2023-05-07T00:48:48;10.40;99.90
26182;DHT22;13927;51.534;11.866;2023-05-07T00:51:15;10.40;99.90
26182;DHT22;13927;51.534;11.866;2023-05-07T00:53:42;10.30;99.90
26182;DHT22;13927;51.534;11.866;2023-05-07T00:56:08;10.30;99.90
26182;DHT22;13927;51.534;11.866;2023-05-07T00:58:34;10.30;99.90
26182;DHT22;13927;51.534;11.866;2023-05-07T01:01:00;10.30;99.90
26182;DHT22;13927;51.534;11.866;2023-05-07T01:03:25;10.20;99.90
26182;DHT22;13927;51.534;11.866;2023-05-07T01:05:52;10.30;99.90
26182;DHT22;13927;51.534;11.866;2023-05-07T01:08:18;10.30;99.90
26182;DHT22;13927;51.534;11.866;2023-05-07T01:10:44;10.30;99.90
26182;DHT22;13927;51.534;11.866;2023-05-07T01:13:12;10.30;99.90
26182;DHT22;13927;51.534;11.866;2023-05-07T01:15:39;10.30;99.90
26182;DHT22;13927;51.534;11.866;2023-05-07T01:18:06;10.40;99.90
26182;DHT22;13927;51.534;11.866;2023-05-07T01:20:32;10.40;99.90
26182;DHT22;13927;51.534;11.866;2023-05-07T01:23:00;10.40;99.90
26182;DHT22;13927;51.534;11.866;2023-05-07T01:25:26;10.40;99.90
26182;DHT22;13927;51.534;11.866;2023-05-07T01:27:52;10.40;99.90
26182;DHT22;13927;51.534;11.866;2023-05-07T01:30:19;10.50;99.90
26182;DHT22;13927;51.534;11.866;2023-05-07T01:32:56;10.50;99.90
26182;DHT22;13927;51.534;11.866;2023-05-07T01:35:29;10.50;99.90
26182;DHT22;13927;51.534;11.866;2023-05-07T01:37:58;10.50;99.90
26182;DHT22;13927;51.534;11.866;2023-05-07T01:40:24;10.50;99.90
26182;DHT22;13927;51.534;11.866;2023-05-07T01:42:51;10.50;99.90
26182;DHT22;13927;51.534;11.866;2023-05-07T01:45:17;10.50;99.90
26182;DHT22;13927;51.534;11.866;2023-05-07T01:47:43;10.40;99.90
26182;DHT22;13927;51.534;11.866;2023-05-07T01:50:10;10.40;99.90
26182;DHT22;13927;51.534;11.866;2023-05-07T01:52:37;10.40;99.90
26182;DHT22;13927;51.534;11.866;2023-05-07T01:55:04;10.40;99.90
26182;DHT22;13927;51.534;11.866;2023-05-07T01:57:31;10.40;99.90
26182;DHT22;13927;51.534;11.866;2023-05-07T01:59:56;10.40;99.90
26182;DHT22;13927;51.534;11.866;2023-05-07T02:02:22;10.40;99.90
26182;DHT22;13927;51.534;11.866;2023-05-07T02:04:48;10.40;99.90
26182;DHT22;13927;51.534;11.866;2023-05-07T02:07:14;10.40;99.90
26182;DHT22;13927;51.534;11.866;2023-05-07T02:09:39;10.40;99.90
26182;DHT22;13927;51.534;11.866;2023-05-07T02:12:05;10.30;99.90
26182;DHT22;13927;51.534;11.866;2023-05-07T02:14:31;10.40;99.90
26182;DHT22;13927;51.534;11.866;2023-05-07T02:16:56;10.40;99.90
26182;DHT22;13927;51.534;11.866;2023-05-07T02:19:22;10.40;99.90
26182;DHT22;13927;51.534;11.866;2023-05-07T02:21:48;10.50;99.90
26182;DHT22;13927;51.534;11.866;2023-05-07T02:24:14;10.50;99.90
26182;DHT22;13927;51.534;11.866;2023-05-07T02:26:40;10.40;99.90
26182;DHT22;13927;51.534;11.866;2023-05-07T02:29:06;10.40;99.90
26182;DHT22;13927;51.534;11.866;2023-05-07T02:31:32;10.40;99.90
26182;DHT22;13927;51.534;11.866;2023-05-07T02:33:59;10.40;99.90
26182;DHT22;13927;51.534;11.866;2023-05-07T02:36:25;10.40;99.90
26182;DHT22;13927;51.534;11.866;2023-05-07T02:38:52;10.40;99.90
26182;DHT22;13927;51.534;11.866;2023-05-07T02:41:18;10.40;99.90
26182;DHT22;13927;51.534;11.866;2023-05-07T02:43:43;10.50;99.90
26182;DHT22;13927;51.534;11.866;2023-05-07T02:46:09;10.50;99.90
26182;DHT22;13927;51.534;11.866;2023-05-07T02:48:35;10.50;99.90
26182;DHT22;13927;51.534;11.866;2023-05-07T02:51:02;10.50;99.90
26182;DHT22;13927;51.534;11.866;2023-05-07T02:53:28;10.60;99.90
26182;DHT22;13927;51.534;11.866;2023-05-07T02:55:58;10.60;99.90
26182;DHT22;13927;51.534;11.866;2023-05-07T02:58:25;10.60;99.90
26182;DHT22;13927;51.534;11.866;2023-05-07T03:00:51;10.50;99.90
26182;DHT22;13927;51.534;11.866;2023-05-07T03:03:18;10.50;99.90
26182;DHT22;13927;51.534;11.866;2023-05-07T03:05:44;10.50;99.90
26182;DHT22;13927;51.534;11.866;2023-05-07T03:08:09;10.50;99.90
26182;DHT22;13927;51.534;11.866;2023-05-07T03:10:36;10.50;99.90
26182;DHT22;13927;51.534;11.866;2023-05-07T03:13:02;10.50;99.90
26182;DHT22;13927;51.534;11.866;2023-05-07T03:15:28;10.50;99.90
26182;DHT22;13927;51.534;11.866;2023-05-07T03:17:54;10.60;99.90
26182;DHT22;13927;51.534;11.866;2023-05-07T03:20:19;10.50;99.90
26182;DHT22;13927;51.534;11.866;2023-05-07T03:22:45;10.60;99.90
26182;DHT22;13927;51.534;11.866;2023-05-07T03:25:11;10.50;99.90
26182;DHT22;13927;51.534;11.866;2023-05-07T03:27:37;10.50;99.90
26182;DHT22;13927;51.534;11.866;2023-05-07T03:30:03;10.50;99.90
26182;DHT22;13927;51.534;11.866;2023-05-07T03:32:29;10.50;99.90
26182;DHT22;13927;51.534;11.866;2023-05-07T03:34:55;10.40;99.90
26182;DHT22;13927;51.534;11.866;2023-05-07T03:37:21;10.50;99.90
26182;DHT22;13927;51.534;11.866;2023-05-07T03:39:47;10.50;99.90
26182;DHT22;13927;51.534;11.866;2023-05-07T03:42:13;10.50;99.90
26182;DHT22;13927;51.534;11.866;2023-05-07T03:44:38;10.40;99.90
26182;DHT22;13927;51.534;11.866;2023-05-07T03:47:04;10.40;99.90
26182;DHT22;13927;51.534;11.866;2023-05-07T03:49:30;10.40;99.90
26182;DHT22;13927;51.534;11.866;2023-05-07T03:51:55;10.40;99.90
26182;DHT22;13927;51.534;11.866;2023-05-07T03:54:21;10.30;99.90
26182;DHT22;13927;51.534;11.866;2023-05-07T03:56:47;10.30;99.90
26182;DHT22;13927;51.534;11.866;2023-05-07T03:59:13;10.40;99.90
26182;DHT22;13927;51.534;11.866;2023-05-07T04:01:39;10.40;99.90
26182;DHT22;13927;51.534;11.866;2023-05-07T04:04:05;10.40;99.90
26182;DHT22;13927;51.534;11.866;2023-05-07T04:06:31;10.40;99.90
26182;DHT22;13927;51.534;11.866;2023-05-07T04:08:57;10.40;99.90
26182;DHT22;13927;51.534;11.866;2023-05-07T04:11:23;10.40;99.90
26182;DHT22;13927;51.534;11.866;2023-05-07T04:13:49;10.50;99.90
26182;DHT22;13927;51.534;11.866;2023-05-07T04:16:14;10.40;99.90
26182;DHT22;13927;51.534;11.866;2023-05-07T04:18:40;10.40;99.90
26182;DHT22;13927;51.534;11.866;2023-05-07T04:21:14;10.40;99.90
26182;DHT22;13927;51.534;11.866;2023-05-07T04:23:41;10.50;99.90
26182;DHT22;13927;51.534;11.866;2023-05-07T04:26:06;10.40;99.90
26182;DHT22;13927;51.534;11.866;2023-05-07T04:28:32;10.50;99.90
26182;DHT22;13927;51.534;11.866;2023-05-07T04:30:58;10.50;99.90
26182;DHT22;13927;51.534;11.866;2023-05-07T04:33:23;10.60;99.90
26182;DHT22;13927;51.534;11.866;2023-05-07T04:35:49;10.60;99.90
26182;DHT22;13927;51.534;11.866;2023-05-07T04:38:15;10.60;99.90
26182;DHT22;13927;51.534;11.866;2023-05-07T04:40:41;10.60;99.90
26182;DHT22;13927;51.534;11.866;2023-05-07T04:43:07;10.60;99.90
26182;DHT22;13927;51.534;11.866;2023-05-07T04:45:35;10.60;99.90
26182;DHT22;13927;51.534;11.866;2023-05-07T04:48:01;10.60;99.90
26182;DHT22;13927;51.534;11.866;2023-05-07T04:50:26;10.60;99.90
26182;DHT22;13927;51.534;11.866;2023-05-07T04:52:52;10.60;99.90
26182;DHT22;13927;51.534;11.866;2023-05-07T04:55:18;10.60;99.90
26182;DHT22;13927;51.534;11.866;2023-05-07T04:57:44;10.60;99.90
26182;DHT22;13927;51.534;11.866;2023-05-07T05:00:10;10.60;99.90
26182;DHT22;13927;51.534;11.866;2023-05-07T05:02:39;10.60;99.90
26182;DHT22;13927;51.534;11.866;2023-05-07T05:05:06;10.70;99.90
26182;DHT22;13927;51.534;11.866;2023-05-07T05:07:32;10.70;99.90
26182;DHT22;13927;51.534;11.866;2023-05-07T05:09:59;10.80;99.90
26182;DHT22;13927;51.534;11.866;2023-05-07T05:12:25;10.80;99.90
26182;DHT22;13927;51.534;11.866;2023-05-07T05:14:50;10.90;99.90
26182;DHT22;13927;51.534;11.866;2023-05-07T05:17:16;10.90;99.90
26182;DHT22;13927;51.534;11.866;2023-05-07T05:19:42;11.00;99.90
26182;DHT22;13927;51.534;11.866;2023-05-07T05:22:07;11.10;99.90
26182;DHT22;13927;51.534;11.866;2023-05-07T05:24:33;11.10;99.90
26182;DHT22;13927;51.534;11.866;2023-05-07T05:26:59;11.20;99.90
26182;DHT22;13927;51.534;11.866;2023-05-07T05:29:26;11.20;99.90
26182;DHT22;13927;51.534;11.866;2023-05-07T05:31:52;11.20;99.90
26182;DHT22;13927;51.534;11.866;2023-05-07T05:34:18;11.10;99.90
26182;DHT22;13927;51.534;11.866;2023-05-07T05:36:45;11.20;99.90
26182;DHT22;13927;51.534;11.866;2023-05-07T05:39:11;11.00;99.90
26182;DHT22;13927;51.534;11.866;2023-05-07T05:41:36;11.00;99.90
26182;DHT22;13927;51.534;11.866;2023-05-07T05:44:02;11.00;99.90
26182;DHT22;13927;51.534;11.866;2023-05-07T05:46:28;11.10;99.90
26182;DHT22;13927;51.534;11.866;2023-05-07T05:48:53;11.00;99.90
26182;DHT22;13927;51.534;11.866;2023-05-07T05:51:21;11.00;99.90
26182;DHT22;13927;51.534;11.866;2023-05-07T05:53:46;11.00;99.90
26182;DHT22;13927;51.534;11.866;2023-05-07T05:56:12;11.00;99.90
26182;DHT22;13927;51.534;11.866;2023-05-07T05:58:38;11.00;99.90
26182;DHT22;13927;51.534;11.866;2023-05-07T06:01:04;11.00;99.90
26182;DHT22;13927;51.534;11.866;2023-05-07T06:03:30;11.10;99.90
26182;DHT22;13927;51.534;11.866;2023-05-07T06:05:57;11.20;99.90
26182;DHT22;13927;51.534;11.866;2023-05-07T06:08:23;11.20;99.90
26182;DHT22;13927;51.534;11.866;2023-05-07T06:10:49;11.20;99.90
26182;DHT22;13927;51.534;11.866;2023-05-07T06:13:15;11.30;99.90
26182;DHT22;13927;51.534;11.866;2023-05-07T06:15:41;11.30;99.90
26182;DHT22;13927;51.534;11.866;2023-05-07T06:18:07;11.40;99.90
26182;DHT22;13927;51.534;11.866;2023-05-07T06:20:32;11.40;99.90
26182;DHT22;13927;51.534;11.866;2023-05-07T06:22:58;11.50;99.90
26182;DHT22;13927;51.534;11.866;2023-05-07T06:25:24;11.60;99.90
26182;DHT22;13927;51.534;11.866;2023-05-07T06:27:50;11.60;99.90
26182;DHT22;13927;51.534;11.866;2023-05-07T06:30:15;11.60;99.90
26182;DHT22;13927;51.534;11.866;2023-05-07T06:32:41;11.60;99.90
26182;DHT22;13927;51.534;11.866;2023-05-07T06:35:07;11.50;99.90
26182;DHT22;13927;51.534;11.866;2023-05-07T06:37:33;11.40;99.90
26182;DHT22;13927;51.534;11.866;2023-05-07T06:39:59;11.40;99.90
26182;DHT22;13927;51.534;11.866;2023-05-07T06:42:25;11.40;99.90
26182;DHT22;13927;51.534;11.866;2023-05-07T06:44:50;11.50;99.90
26182;DHT22;13927;51.534;11.866;2023-05-07T06:47:16;11.50;99.90
26182;DHT22;13927;51.534;11.866;2023-05-07T06:49:42;11.50;99.90
26182;DHT22;13927;51.534;11.866;2023-05-07T06:52:08;11.60;99.90
26182;DHT22;13927;51.534;11.866;2023-05-07T06:54:33;11.60;99.90
26182;DHT22;13927;51.534;11.866;2023-05-07T06:56:59;11.70;99.90
26182;DHT22;13927;51.534;11.866;2023-05-07T06:59:26;11.70;99.90
26182;DHT22;13927;51.534;11.866;2023-05-07T07:01:51;11.80;99.90
26182;DHT22;13927;51.534;11.866;2023-05-07T07:04:17;11.90;99.90
26182;DHT22;13927;51.534;11.866;2023-05-07T07:06:43;12.00;99.90
26182;DHT22;13927;51.534;11.866;2023-05-07T07:09:09;12.00;99.90
26182;DHT22;13927;51.534;11.866;2023-05-07T07:11:35;12.00;99.90
26182;DHT22;13927;51.534;11.866;2023-05-07T07:14:00;11.90;99.90
26182;DHT22;13927;51.534;11.866;2023-05-07T07:16:26;11.90;99.90
26182;DHT22;13927;51.534;11.866;2023-05-07T07:18:52;11.90;99.90
26182;DHT22;13927;51.534;11.866;2023-05-07T07:21:18;11.90;99.90
26182;DHT22;13927;51.534;11.866;2023-05-07T07:23:44;11.90;99.90
26182;DHT22;13927;51.534;11.866;2023-05-07T07:26:10;11.90;99.90
26182;DHT22;13927;51.534;11.866;2023-05-07T07:28:42;11.90;99.90
26182;DHT22;13927;51.534;11.866;2023-05-07T07:31:09;11.90;99.90
26182;DHT22;13927;51.534;11.866;2023-05-07T07:33:35;11.90;99.90
26182;DHT22;13927;51.534;11.866;2023-05-07T07:36:01;11.90;99.90
26182;DHT22;13927;51.534;11.866;2023-05-07T07:38:26;11.90;99.90
26182;DHT22;13927;51.534;11.866;2023-05-07T07:40:53;12.00;99.90
26182;DHT22;13927;51.534;11.866;2023-05-07T07:43:19;11.90;99.90
26182;DHT22;13927;51.534;11.866;2023-05-07T07:45:44;11.90;99.90
26182;DHT22;13927;51.534;11.866;2023-05-07T07:48:11;11.80;99.90
26182;DHT22;13927;51.534;11.866;2023-05-07T07:50:38;11.70;99.90
26182;DHT22;13927;51.534;11.866;2023-05-07T07:53:04;11.70;99.90
26182;DHT22;13927;51.534;11.866;2023-05-07T07:55:29;11.70;99.90
26182;DHT22;13927;51.534;11.866;2023-05-07T07:57:56;11.80;99.90
26182;DHT22;13927;51.534;11.866;2023-05-07T08:00:22;11.70;99.90
26182;DHT22;13927;51.534;11.866;2023-05-07T08:02:48;11.80;99.90
26182;DHT22;13927;51.534;11.866;2023-05-07T08:05:14;11.70;99.90
26182;DHT22;13927;51.534;11.866;2023-05-07T08:07:40;11.80;99.90
26182;DHT22;13927;51.534;11.866;2023-05-07T08:10:06;11.80;99.90
26182;DHT22;13927;51.534;11.866;2023-05-07T08:12:32;11.80;99.90
26182;DHT22;13927;51.534;11.866;2023-05-07T08:14:58;11.80;99.90
26182;DHT22;13927;51.534;11.866;2023-05-07T08:17:24;11.90;99.90
26182;DHT22;13927;51.534;11.866;2023-05-07T08:19:50;11.90;99.90
26182;DHT22;13927;51.534;11.866;2023-05-07T08:22:16;12.10;99.90
26182;DHT22;13927;51.534;11.866;2023-05-07T08:24:44;12.20;99.90
26182;DHT22;13927;51.534;11.866;2023-05-07T08:27:10;12.30;99.90
26182;DHT22;13927;51.534;11.866;2023-05-07T08:29:36;12.40;99.90
26182;DHT22;13927;51.534;11.866;2023-05-07T08:32:02;12.50;99.90
26182;DHT22;13927;51.534;11.866;2023-05-07T08:34:28;12.50;99.90
26182;DHT22;13927;51.534;11.866;2023-05-07T08:36:53;12.50;99.90
26182;DHT22;13927;51.534;11.866;2023-05-07T08:39:19;12.30;99.90
26182;DHT22;13927;51.534;11.866;2023-05-07T08:41:45;12.20;99.90
26182;DHT22;13927;51.534;11.866;2023-05-07T08:44:12;12.30;99.90
26182;DHT22;13927;51.534;11.866;2023-05-07T08:46:42;12.30;99.90
26182;DHT22;13927;51.534;11.866;2023-05-07T08:49:10;12.40;99.90
26182;DHT22;13927;51.534;11.866;2023-05-07T08:51:36;12.50;99.90
26182;DHT22;13927;51.534;11.866;2023-05-07T08:54:02;12.40;99.90
26182;DHT22;13927;51.534;11.866;2023-05-07T08:56:29;12.50;99.90
26182;DHT22;13927;51.534;11.866;2023-05-07T08:58:55;12.60;99.90
26182;DHT22;13927;51.534;11.866;2023-05-07T09:01:24;12.70;99.90
26182;DHT22;13927;51.534;11.866;2023-05-07T09:03:51;12.80;99.90
26182;DHT22;13927;51.534;11.866;2023-05-07T09:06:18;12.60;99.90
26182;DHT22;13927;51.534;11.866;2023-05-07T09:08:54;12.60;99.90
26182;DHT22;13927;51.534;11.866;2023-05-07T09:11:22;12.60;99.90
26182;DHT22;13927;51.534;11.866;2023-05-07T09:13:55;12.70;99.90
26182;DHT22;13927;51.534;11.866;2023-05-07T09:16:26;12.70;99.90
26182;DHT22;13927;51.534;11.866;2023-05-07T09:18:54;12.80;99.90
26182;DHT22;13927;51.534;11.866;2023-05-07T09:21:23;12.80;99.90
26182;DHT22;13927;51.534;11.866;2023-05-07T09:23:53;12.70;99.90
26182;DHT22;13927;51.534;11.866;2023-05-07T09:26:24;12.80;99.90
26182;DHT22;13927;51.534;11.866;2023-05-07T09:28:51;12.80;99.90
26182;DHT22;13927;51.534;11.866;2023-05-07T09:31:18;12.80;99.90
26182;DHT22;13927;51.534;11.866;2023-05-07T09:33:44;12.90;99.90
26182;DHT22;13927;51.534;11.866;2023-05-07T09:36:10;13.00;99.90
26182;DHT22;13927;51.534;11.866;2023-05-07T09:38:37;13.10;99.90
26182;DHT22;13927;51.534;11.866;2023-05-07T09:41:06;13.10;99.90
26182;DHT22;13927;51.534;11.866;2023-05-07T09:43:37;13.20;99.90
26182;DHT22;13927;51.534;11.866;2023-05-07T09:46:12;13.10;99.90
26182;DHT22;13927;51.534;11.866;2023-05-07T09:48:43;13.00;99.90
26182;DHT22;13927;51.534;11.866;2023-05-07T09:51:32;13.10;99.90
26182;DHT22;13927;51.534;11.866;2023-05-07T09:54:02;13.20;99.90
26182;DHT22;13927;51.534;11.866;2023-05-07T09:56:30;13.20;99.90
26182;DHT22;13927;51.534;11.866;2023-05-07T09:59:00;13.20;99.90
26182;DHT22;13927;51.534;11.866;2023-05-07T10:01:27;13.20;99.90
26182;DHT22;13927;51.534;11.866;2023-05-07T10:03:53;13.20;99.90
26182;DHT22;13927;51.534;11.866;2023-05-07T10:06:20;13.10;99.90
26182;DHT22;13927;51.534;11.866;2023-05-07T10:08:48;13.20;99.90
26182;DHT22;13927;51.534;11.866;2023-05-07T10:11:15;13.10;99.90
26182;DHT22;13927;51.534;11.866;2023-05-07T10:13:43;13.20;99.90
26182;DHT22;13927;51.534;11.866;2023-05-07T10:16:10;13.30;99.90
26182;DHT22;13927;51.534;11.866;2023-05-07T10:18:38;13.30;99.90
26182;DHT22;13927;51.534;11.866;2023-05-07T10:21:18;13.30;99.90
26182;DHT22;13927;51.534;11.866;2023-05-07T10:23:57;13.20;99.90
26182;DHT22;13927;51.534;11.866;2023-05-07T10:26:27;13.20;99.90
26182;DHT22;13927;51.534;11.866;2023-05-07T10:29:02;13.30;99.90
26182;DHT22;13927;51.534;11.866;2023-05-07T10:34:28;13.30;99.90
26182;DHT22;13927;51.534;11.866;2023-05-07T10:36:56;13.50;99.90
26182;DHT22;13927;51.534;11.866;2023-05-07T10:39:23;13.50;99.90
26182;DHT22;13927;51.534;11.866;2023-05-07T10:41:50;13.60;99.90
26182;DHT22;13927;51.534;11.866;2023-05-07T10:44:29;13.50;99.90
26182;DHT22;13927;51.534;11.866;2023-05-07T10:47:16;13.50;99.90
26182;DHT22;13927;51.534;11.866;2023-05-07T10:57:48;13.40;99.90
26182;DHT22;13927;51.534;11.866;2023-05-07T11:03:07;13.30;99.90
26182;DHT22;13927;51.534;11.866;2023-05-07T11:05:33;13.40;99.90
26182;DHT22;13927;51.534;11.866;2023-05-07T11:08:04;13.40;99.90
26182;DHT22;13927;51.534;11.866;2023-05-07T11:10:52;13.40;99.90
26182;DHT22;13927;51.534;11.866;2023-05-07T11:13:46;13.50;99.90
26182;DHT22;13927;51.534;11.866;2023-05-07T11:16:21;13.50;99.90
26182;DHT22;13927;51.534;11.866;2023-05-07T11:18:55;13.50;99.90
26182;DHT22;13927;51.534;11.866;2023-05-07T11:21:48;13.40;99.90
26182;DHT22;13927;51.534;11.866;2023-05-07T11:24:14;13.50;99.90
26182;DHT22;13927;51.534;11.866;2023-05-07T11:26:46;13.50;99.90
26182;DHT22;13927;51.534;11.866;2023-05-07T11:29:21;13.70;99.90
26182;DHT22;13927;51.534;11.866;2023-05-07T11:31:52;13.90;99.90
26182;DHT22;13927;51.534;11.866;2023-05-07T11:34:22;14.10;99.90
26182;DHT22;13927;51.534;11.866;2023-05-07T11:36:50;14.00;99.90
26182;DHT22;13927;51.534;11.866;2023-05-07T11:39:27;13.90;99.90
26182;DHT22;13927;51.534;11.866;2023-05-07T11:41:57;14.10;99.90
26182;DHT22;13927;51.534;11.866;2023-05-07T11:44:24;14.10;99.90
26182;DHT22;13927;51.534;11.866;2023-05-07T11:46:49;14.10;99.90
26182;DHT22;13927;51.534;11.866;2023-05-07T11:49:15;14.00;99.90
26182;DHT22;13927;51.534;11.866;2023-05-07T11:51:42;14.10;99.90
26182;DHT22;13927;51.534;11.866;2023-05-07T11:54:08;14.20;99.90
26182;DHT22;13927;51.534;11.866;2023-05-07T11:56:37;14.00;99.90
26182;DHT22;13927;51.534;11.866;2023-05-07T11:59:02;14.20;99.90
26182;DHT22;13927;51.534;11.866;2023-05-07T12:01:28;14.30;99.90
26182;DHT22;13927;51.534;11.866;2023-05-07T12:03:54;14.40;99.90
26182;DHT22;13927;51.534;11.866;2023-05-07T12:06:20;14.40;99.90
26182;DHT22;13927;51.534;11.866;2023-05-07T12:08:48;14.40;99.90
26182;DHT22;13927;51.534;11.866;2023-05-07T12:11:16;14.30;99.90
26182;DHT22;13927;51.534;11.866;2023-05-07T12:13:47;14.20;99.90
26182;DHT22;13927;51.534;11.866;2023-05-07T12:16:12;14.10;99.90
26182;DHT22;13927;51.534;11.866;2023-05-07T12:18:40;14.00;99.90
26182;DHT22;13927;51.534;11.866;2023-05-07T12:21:06;14.00;99.90
26182;DHT22;13927;51.534;11.866;2023-05-07T12:23:37;14.00;99.90
26182;DHT22;13927;51.534;11.866;2023-05-07T12:26:04;14.00;99.90
26182;DHT22;13927;51.534;11.866;2023-05-07T12:28:30;14.10;99.90
26182;DHT22;13927;51.534;11.866;2023-05-07T12:30:56;14.20;99.90
26182;DHT22;13927;51.534;11.866;2023-05-07T12:33:27;14.40;99.90
26182;DHT22;13927;51.534;11.866;2023-05-07T12:35:55;14.50;99.90
26182;DHT22;13927;51.534;11.866;2023-05-07T12:38:21;14.60;99.90
26182;DHT22;13927;51.534;11.866;2023-05-07T12:40:50;14.70;99.90
26182;DHT22;13927;51.534;11.866;2023-05-07T12:43:28;14.70;99.90
26182;DHT22;13927;51.534;11.866;2023-05-07T12:45:56;14.70;99.90
26182;DHT22;13927;51.534;11.866;2023-05-07T12:48:23;14.80;99.90
26182;DHT22;13927;51.534;11.866;2023-05-07T12:50:56;14.80;99.90
26182;DHT22;13927;51.534;11.866;2023-05-07T12:53:24;14.80;99.90
26182;DHT22;13927;51.534;11.866;2023-05-07T12:55:54;14.60;99.90
26182;DHT22;13927;51.534;11.866;2023-05-07T12:58:33;14.30;99.90
26182;DHT22;13927;51.534;11.866;2023-05-07T13:01:07;14.30;99.90
26182;DHT22;13927;51.534;11.866;2023-05-07T13:03:36;14.40;99.90
26182;DHT22;13927;51.534;11.866;2023-05-07T13:06:05;14.50;99.90
26182;DHT22;13927;51.534;11.866;2023-05-07T13:08:54;14.50;99.90
26182;DHT22;13927;51.534;11.866;2023-05-07T13:11:19;14.60;99.90
26182;DHT22;13927;51.534;11.866;2023-05-07T13:13:45;14.70;99.90
26182;DHT22;13927;51.534;11.866;2023-05-07T13:16:23;14.70;99.90
26182;DHT22;13927;51.534;11.866;2023-05-07T13:18:49;14.60;99.90
26182;DHT22;13927;51.534;11.866;2023-05-07T13:21:15;14.50;99.90
26182;DHT22;13927;51.534;11.866;2023-05-07T13:23:41;14.50;99.90
26182;DHT22;13927;51.534;11.866;2023-05-07T13:26:06;14.50;99.90
26182;DHT22;13927;51.534;11.866;2023-05-07T13:28:32;14.70;99.90
26182;DHT22;13927;51.534;11.866;2023-05-07T13:31:01;14.80;99.90
26182;DHT22;13927;51.534;11.866;2023-05-07T13:33:27;14.80;99.90
26182;DHT22;13927;51.534;11.866;2023-05-07T13:35:52;14.90;99.90
26182;DHT22;13927;51.534;11.866;2023-05-07T13:38:18;15.10;99.90
26182;DHT22;13927;51.534;11.866;2023-05-07T13:40:44;15.20;99.90
26182;DHT22;13927;51.534;11.866;2023-05-07T13:43:10;15.30;99.90
26182;DHT22;13927;51.534;11.866;2023-05-07T13:45:45;15.40;99.90
26182;DHT22;13927;51.534;11.866;2023-05-07T13:48:10;15.50;99.90
26182;DHT22;13927;51.534;11.866;2023-05-07T13:50:36;15.30;99.90
26182;DHT22;13927;51.534;11.866;2023-05-07T13:53:02;15.30;99.90
26182;DHT22;13927;51.534;11.866;2023-05-07T13:55:28;15.60;99.90
26182;DHT22;13927;51.534;11.866;2023-05-07T13:58:00;15.80;99.90
26182;DHT22;13927;51.534;11.866;2023-05-07T14:00:27;15.80;99.90
26182;DHT22;13927;51.534;11.866;2023-05-07T14:02:55;15.80;99.90
26182;DHT22;13927;51.534;11.866;2023-05-07T14:05:22;15.50;99.90
26182;DHT22;13927;51.534;11.866;2023-05-07T14:08:07;15.30;99.90
26182;DHT22;13927;51.534;11.866;2023-05-07T14:10:33;15.10;99.90
26182;DHT22;13927;51.534;11.866;2023-05-07T14:13:00;15.20;99.90
26182;DHT22;13927;51.534;11.866;2023-05-07T14:15:26;15.20;99.90
26182;DHT22;13927;51.534;11.866;2023-05-07T14:17:54;15.30;99.90
26182;DHT22;13927;51.534;11.866;2023-05-07T14:20:20;15.40;99.90
26182;DHT22;13927;51.534;11.866;2023-05-07T14:22:46;15.20;99.90
26182;DHT22;13927;51.534;11.866;2023-05-07T14:25:12;15.40;99.90
26182;DHT22;13927;51.534;11.866;2023-05-07T14:27:38;15.50;99.90
26182;DHT22;13927;51.534;11.866;2023-05-07T14:30:04;15.70;99.90
26182;DHT22;13927;51.534;11.866;2023-05-07T14:32:30;15.70;99.90
26182;DHT22;13927;51.534;11.866;2023-05-07T14:34:56;15.60;99.90
26182;DHT22;13927;51.534;11.866;2023-05-07T14:37:23;15.60;99.90
26182;DHT22;13927;51.534;11.866;2023-05-07T14:39:49;15.50;99.90
26182;DHT22;13927;51.534;11.866;2023-05-07T14:42:15;15.50;99.90
26182;DHT22;13927;51.534;11.866;2023-05-07T14:44:40;15.30;99.90
26182;DHT22;13927;51.534;11.866;2023-05-07T14:47:07;15.20;99.90
26182;DHT22;13927;51.534;11.866;2023-05-07T14:49:33;15.10;99.90
26182;DHT22;13927;51.534;11.866;2023-05-07T14:52:00;14.90;99.90
26182;DHT22;13927;51.534;11.866;2023-05-07T14:54:26;14.70;99.90
26182;DHT22;13927;51.534;11.866;2023-05-07T14:56:52;14.70;99.90
26182;DHT22;13927;51.534;11.866;2023-05-07T15:02:29;14.60;99.90
26182;DHT22;13927;51.534;11.866;2023-05-07T15:04:54;14.60;99.90
26182;DHT22;13927;51.534;11.866;2023-05-07T15:07:20;14.70;99.90
26182;DHT22;13927;51.534;11.866;2023-05-07T15:09:46;14.80;99.90
26182;DHT22;13927;51.534;11.866;2023-05-07T15:12:13;15.00;99.90
26182;DHT22;13927;51.534;11.866;2023-05-07T15:14:45;15.20;99.90
26182;DHT22;13927;51.534;11.866;2023-05-07T15:17:10;15.30;99.90
26182;DHT22;13927;51.534;11.866;2023-05-07T15:19:42;15.20;99.90
26182;DHT22;13927;51.534;11.866;2023-05-07T15:22:08;15.30;99.90
26182;DHT22;13927;51.534;11.866;2023-05-07T15:24:34;15.20;99.90
26182;DHT22;13927;51.534;11.866;2023-05-07T15:26:59;15.00;99.90
26182;DHT22;13927;51.534;11.866;2023-05-07T15:29:26;15.00;99.90
26182;DHT22;13927;51.534;11.866;2023-05-07T15:31:52;14.90;99.90